Time;durP1;ratioP1;P1;durP2;ratioP2;P2;SDS_P1;SDS_P2;PMS_P1;PMS_P2;Temp;Humidity;BMP_temperature;BMP_pressure;BME280_temperature;BME280_humidity;BME280_pressure;Samples;Min_cycle;Max_cycle;Signal;HPM_P1;HPM_P2
2022/09/26 00:01:16;;;;;;;0.90;0.90;;;;;;;;;;4943731;28;20485;-46
2022/09/26 00:04:06;;;;;;;2.70;1.10;;;;;;;;;;4948083;28;20420;-44
2022/09/26 00:06:53;;;;;;;0.90;0.90;;;;;;;;;;4938706;28;20118;-45
2022/09/26 00:09:39;;;;;;;0.80;0.80;;;;;;;;;;4941685;28;20039;-45
2022/09/26 00:12:24;;;;;;;1.48;0.70;;;;;;;;;;4945110;28;20119;-48
2022/09/26 00:15:11;;;;;;;1.90;1.00;;;;;;;;;;4938055;28;20555;-46
2022/09/26 00:17:56;;;;;;;1.00;0.90;;;;;;;;;;4949575;28;20133;-50
2022/09/26 00:20:42;;;;;;;2.00;0.90;;;;;;;;;;4937593;28;20122;-45
2022/09/26 00:23:28;;;;;;;0.90;0.90;;;;;;;;;;4944827;28;20035;-48
2022/09/26 00:26:15;;;;;;;0.85;0.85;;;;;;;;;;4953853;28;20125;-48
2022/09/26 00:29:06;;;;;;;0.70;0.70;;;;;;;;;;4938457;28;20478;-48
2022/09/26 00:31:52;;;;;;;0.90;0.90;;;;;;;;;;4944365;28;20070;-47
2022/09/26 00:34:38;;;;;;;1.63;0.95;;;;;;;;;;4939688;28;20047;-45
2022/09/26 00:37:24;;;;;;;0.95;0.95;;;;;;;;;;4948417;28;20054;-47
2022/09/26 00:40:10;;;;;;;0.85;0.85;;;;;;;;;;4941640;28;20039;-45
2022/09/26 00:42:57;;;;;;;0.70;0.70;;;;;;;;;;4950727;28;20452;-46
2022/09/26 00:45:43;;;;;;;1.05;0.90;;;;;;;;;;4940695;28;20034;-49
2022/09/26 00:48:30;;;;;;;0.90;0.90;;;;;;;;;;4937637;28;20236;-48
2022/09/26 00:51:16;;;;;;;0.88;0.80;;;;;;;;;;4949700;28;20034;-48
2022/09/26 00:54:03;;;;;;;0.90;0.90;;;;;;;;;;4937128;28;20047;-46
2022/09/26 00:56:52;;;;;;;7.50;1.05;;;;;;;;;;4931341;28;20065;-48
2022/09/26 00:59:42;;;;;;;1.45;1.00;;;;;;;;;;4948692;28;20125;-45
2022/09/26 01:02:28;;;;;;;1.83;0.82;;;;;;;;;;4952058;28;20031;-46
2022/09/26 01:05:17;;;;;;;0.90;0.90;;;;;;;;;;4937043;28;20575;-46
2022/09/26 01:08:04;;;;;;;0.82;0.82;;;;;;;;;;4940492;28;20050;-49
2022/09/26 01:10:50;;;;;;;3.65;1.10;;;;;;;;;;4945254;28;20031;-46
2022/09/26 01:13:38;;;;;;;1.50;0.80;;;;;;;;;;4956394;28;20047;-47
2022/09/26 01:16:23;;;;;;;1.00;0.80;;;;;;;;;;4930206;28;20085;-44
2022/09/26 01:19:27;;;;;;;1.00;0.90;;;;;;;;;;4941336;28;20519;-50
2022/09/26 01:22:15;;;;;;;0.90;0.90;;;;;;;;;;4944030;28;20043;-48
2022/09/26 01:25:31;;;;;;;0.90;0.90;;;;;;;;;;4934059;28;20500;-45
2022/09/26 01:28:48;;;;;;;1.48;1.13;;;;;;;;;;4939015;28;20756;-45
2022/09/26 01:31:41;;;;;;;1.05;0.90;;;;;;;;;;4932053;28;20045;-51
2022/09/26 01:34:35;;;;;;;3.03;1.00;;;;;;;;;;4936437;28;20411;-45
2022/09/26 01:37:42;;;;;;;0.95;0.95;;;;;;;;;;4930260;28;20068;-45
2022/09/26 01:40:38;;;;;;;1.00;1.00;;;;;;;;;;4943835;28;20418;-47
2022/09/26 01:43:48;;;;;;;2.10;0.90;;;;;;;;;;4941492;28;20404;-45
2022/09/26 01:46:54;;;;;;;1.00;0.95;;;;;;;;;;4938552;28;20550;-47
2022/09/26 01:50:06;;;;;;;2.88;0.98;;;;;;;;;;4939795;28;20051;-44
2022/09/26 01:53:00;;;;;;;3.70;1.63;;;;;;;;;;4953828;28;20047;-45
2022/09/26 01:55:52;;;;;;;1.25;0.90;;;;;;;;;;4944731;28;20150;-48
2022/09/26 01:58:48;;;;;;;0.90;0.90;;;;;;;;;;4947980;28;20083;-49
2022/09/26 02:01:39;;;;;;;0.88;0.88;;;;;;;;;;4942971;28;20142;-49
2022/09/26 02:04:31;;;;;;;4.13;0.88;;;;;;;;;;4949886;28;20041;-48
2022/09/26 02:07:18;;;;;;;;;;;;;;;;;;4936828;28;20272;-47
2022/09/26 02:10:37;;;;;;;1.23;1.00;;;;;;;;;;4942556;28;19930;-50
2022/09/26 02:13:28;;;;;;;1.00;0.90;;;;;;;;;;4943654;28;20054;-47
2022/09/26 02:16:30;;;;;;;0.80;0.80;;;;;;;;;;4937420;28;20035;-51
2022/09/26 02:19:34;;;;;;;1.38;1.17;;;;;;;;;;4935225;28;20027;-48
2022/09/26 02:22:19;;;;;;;1.17;1.08;;;;;;;;;;4949508;28;20041;-46
2022/09/26 02:25:07;;;;;;;1.45;1.35;;;;;;;;;;4946057;28;20488;-44
2022/09/26 02:27:53;;;;;;;1.25;1.15;;;;;;;;;;4956211;28;20047;-45
2022/09/26 02:30:43;;;;;;;2.33;1.05;;;;;;;;;;4935267;28;20154;-44
2022/09/26 02:33:29;;;;;;;1.17;1.17;;;;;;;;;;4947876;28;20058;-46
2022/09/26 02:36:18;;;;;;;1.00;1.00;;;;;;;;;;4956802;28;20042;-48
2022/09/26 02:39:03;;;;;;;1.17;1.10;;;;;;;;;;4949940;28;20051;-46
2022/09/26 02:42:05;;;;;;;1.42;1.33;;;;;;;;;;4941135;28;20352;-46
2022/09/26 02:45:06;;;;;;;1.40;1.05;;;;;;;;;;4950606;28;20444;-44
2022/09/26 02:47:55;;;;;;;1.50;1.40;;;;;;;;;;4956510;28;20038;-48
2022/09/26 02:51:06;;;;;;;1.17;1.17;;;;;;;;;;4939571;28;20043;-45
2022/09/26 02:54:24;;;;;;;4.20;1.50;;;;;;;;;;4961068;28;20534;-46
2022/09/26 02:57:34;;;;;;;1.48;1.30;;;;;;;;;;4937482;28;20105;-46
2022/09/26 03:00:23;;;;;;;1.30;1.20;;;;;;;;;;4954484;28;20051;-46
2022/09/26 03:03:15;;;;;;;1.20;1.20;;;;;;;;;;4958692;28;20407;-44
2022/09/26 03:06:04;;;;;;;1.80;1.52;;;;;;;;;;4951171;28;20034;-48
2022/09/26 03:08:52;;;;;;;1.13;1.13;;;;;;;;;;4948564;28;20836;-49
2022/09/26 03:11:39;;;;;;;1.88;1.20;;;;;;;;;;4948007;28;21685;-49
2022/09/26 03:14:27;;;;;;;2.00;1.40;;;;;;;;;;4946818;28;20469;-47
2022/09/26 03:17:17;;;;;;;1.38;1.10;;;;;;;;;;4942098;28;20393;-45
2022/09/26 03:20:13;;;;;;;1.40;1.30;;;;;;;;;;4938908;28;20048;-47
2022/09/26 03:23:01;;;;;;;6.68;1.30;;;;;;;;;;4947192;28;20135;-47
2022/09/26 03:25:59;;;;;;;2.97;1.30;;;;;;;;;;4944622;28;20035;-51
2022/09/26 03:28:45;;;;;;;3.72;1.75;;;;;;;;;;4940581;28;20065;-50
2022/09/26 03:31:31;;;;;;;1.45;1.33;;;;;;;;;;4949048;28;20369;-46
2022/09/26 03:34:17;;;;;;;1.27;1.17;;;;;;;;;;4945686;28;20047;-48
2022/09/26 03:37:03;;;;;;;1.50;1.42;;;;;;;;;;4948773;28;20030;-46
2022/09/26 03:39:48;;;;;;;1.85;1.42;;;;;;;;;;4945322;28;20055;-50
2022/09/26 03:42:35;;;;;;;1.65;1.40;;;;;;;;;;4939023;28;20119;-45
2022/09/26 03:45:21;;;;;;;2.15;1.27;;;;;;;;;;4941923;28;20027;-44
2022/09/26 03:48:07;;;;;;;1.75;1.65;;;;;;;;;;4945888;28;20575;-48
2022/09/26 03:50:53;;;;;;;1.60;1.50;;;;;;;;;;4935673;28;20039;-49
2022/09/26 03:53:41;;;;;;;1.50;1.40;;;;;;;;;;4943119;28;20091;-47
2022/09/26 03:56:27;;;;;;;2.25;1.30;;;;;;;;;;4946351;28;20034;-49
2022/09/26 03:59:12;;;;;;;1.60;1.50;;;;;;;;;;4948756;28;20059;-47
2022/09/26 04:01:58;;;;;;;1.50;1.40;;;;;;;;;;4948955;28;20049;-49
2022/09/26 04:04:44;;;;;;;1.67;1.58;;;;;;;;;;4940339;28;20035;-47
2022/09/26 04:07:29;;;;;;;1.70;1.60;;;;;;;;;;4935874;28;20066;-45
2022/09/26 04:10:15;;;;;;;1.55;1.45;;;;;;;;;;4952549;28;20048;-46
2022/09/26 04:13:02;;;;;;;2.97;1.77;;;;;;;;;;4937436;28;20051;-47
2022/09/26 04:15:54;;;;;;;4.18;1.65;;;;;;;;;;4938356;28;20039;-51
2022/09/26 04:18:40;;;;;;;1.30;1.30;;;;;;;;;;4955174;28;20105;-48
2022/09/26 04:21:26;;;;;;;2.90;1.70;;;;;;;;;;4949601;28;20031;-50
2022/09/26 04:24:14;;;;;;;1.85;1.75;;;;;;;;;;4937403;28;20044;-50
2022/09/26 04:27:00;;;;;;;1.67;1.58;;;;;;;;;;4941911;28;20036;-48
2022/09/26 04:29:45;;;;;;;3.13;1.80;;;;;;;;;;4960130;28;20053;-47
2022/09/26 04:32:31;;;;;;;2.13;1.85;;;;;;;;;;4943874;28;20039;-48
2022/09/26 04:35:17;;;;;;;1.70;1.60;;;;;;;;;;4941481;28;20046;-48
2022/09/26 04:38:03;;;;;;;2.42;1.67;;;;;;;;;;4947234;28;20134;-49
2022/09/26 04:40:49;;;;;;;2.00;1.90;;;;;;;;;;4945310;28;20039;-45
2022/09/26 04:43:35;;;;;;;4.38;1.80;;;;;;;;;;4952163;28;20070;-47
2022/09/26 04:46:24;;;;;;;1.95;1.75;;;;;;;;;;4945400;28;20079;-46
2022/09/26 04:49:10;;;;;;;2.08;1.83;;;;;;;;;;4942632;28;20048;-48
2022/09/26 04:51:55;;;;;;;3.28;2.00;;;;;;;;;;4946477;28;20114;-47
2022/09/26 04:54:41;;;;;;;1.70;1.63;;;;;;;;;;4952620;28;20041;-47
2022/09/26 04:57:27;;;;;;;2.97;1.60;;;;;;;;;;4941474;28;20097;-46
2022/09/26 05:00:13;;;;;;;2.00;1.90;;;;;;;;;;4937061;28;20070;-47
2022/09/26 05:02:59;;;;;;;1.85;1.75;;;;;;;;;;4937904;28;20139;-46
2022/09/26 05:05:49;;;;;;;2.30;2.10;;;;;;;;;;4943151;28;20031;-46
2022/09/26 05:08:36;;;;;;;1.98;1.80;;;;;;;;;;4934234;28;20039;-49
2022/09/26 05:11:22;;;;;;;5.05;1.75;;;;;;;;;;4936554;28;20081;-50
2022/09/26 05:14:07;;;;;;;3.35;1.70;;;;;;;;;;4941386;28;20050;-49
2022/09/26 05:16:53;;;;;;;1.85;1.75;;;;;;;;;;4944053;28;20036;-47
2022/09/26 05:19:40;;;;;;;3.38;1.88;;;;;;;;;;4946685;28;20105;-50
2022/09/26 05:22:30;;;;;;;3.30;1.90;;;;;;;;;;4946436;28;20058;-52
2022/09/26 05:28:19;;;;;;;4.28;2.08;;;;;;;;;;4938935;28;20419;-47
2022/09/26 05:31:07;;;;;;;2.35;2.22;;;;;;;;;;4938573;28;20114;-44
2022/09/26 05:33:56;;;;;;;2.65;2.45;;;;;;;;;;4944571;28;20462;-45
2022/09/26 05:36:41;;;;;;;3.50;2.42;;;;;;;;;;4937460;28;20042;-45
2022/09/26 05:42:32;;;;;;;2.83;2.60;;;;;;;;;;4944586;28;20035;-45
2022/09/26 05:45:18;;;;;;;4.60;2.63;;;;;;;;;;4945130;28;20117;-46
2022/09/26 05:48:05;;;;;;;3.08;2.40;;;;;;;;;;4943579;28;20050;-44
2022/09/26 05:50:51;;;;;;;3.10;2.90;;;;;;;;;;4946647;28;20043;-44
2022/09/26 05:53:42;;;;;;;9.70;3.08;;;;;;;;;;4940508;28;20122;-46
2022/09/26 05:56:27;;;;;;;3.40;3.10;;;;;;;;;;4940591;28;20031;-47
2022/09/26 05:59:13;;;;;;;5.07;3.08;;;;;;;;;;4940049;28;20057;-47
2022/09/26 06:01:59;;;;;;;3.00;2.65;;;;;;;;;;4950919;28;20038;-44
2022/09/26 06:04:45;;;;;;;3.42;2.88;;;;;;;;;;4940251;28;20035;-47
2022/09/26 06:07:31;;;;;;;4.80;2.90;;;;;;;;;;4948696;28;20062;-46
2022/09/26 06:10:18;;;;;;;3.08;2.88;;;;;;;;;;4954971;28;20122;-46
2022/09/26 06:13:04;;;;;;;3.92;3.08;;;;;;;;;;4941560;28;20094;-49
2022/09/26 06:15:50;;;;;;;4.18;3.05;;;;;;;;;;4948299;28;20028;-49
2022/09/26 06:18:37;;;;;;;3.25;2.78;;;;;;;;;;4957295;28;20114;-49
2022/09/26 06:21:23;;;;;;;4.60;2.70;;;;;;;;;;4941877;28;20768;-49
2022/09/26 06:24:09;;;;;;;2.80;2.60;;;;;;;;;;4943264;28;20040;-44
2022/09/26 06:26:54;;;;;;;2.78;2.58;;;;;;;;;;4946182;28;20445;-45
2022/09/26 06:29:41;;;;;;;3.10;2.78;;;;;;;;;;4946213;28;20047;-45
2022/09/26 06:32:28;;;;;;;3.40;3.10;;;;;;;;;;4935424;28;20518;-48
2022/09/26 06:35:13;;;;;;;7.75;2.90;;;;;;;;;;4944397;28;20483;-44
2022/09/26 06:37:59;;;;;;;4.10;2.53;;;;;;;;;;4939546;28;20039;-48
2022/09/26 06:40:46;;;;;;;3.45;3.00;;;;;;;;;;4957093;28;20035;-45
2022/09/26 06:43:31;;;;;;;3.60;3.00;;;;;;;;;;4940496;28;20039;-48
2022/09/26 06:46:17;;;;;;;3.33;2.80;;;;;;;;;;4942975;28;20475;-46
2022/09/26 06:49:03;;;;;;;3.08;2.78;;;;;;;;;;4940367;28;20047;-47
2022/09/26 06:51:48;;;;;;;3.25;2.95;;;;;;;;;;4948151;28;20027;-50
2022/09/26 06:54:34;;;;;;;3.08;2.88;;;;;;;;;;4957019;28;20111;-46
2022/09/26 06:57:20;;;;;;;3.25;2.50;;;;;;;;;;4945646;28;20066;-47
2022/09/26 07:00:08;;;;;;;2.70;2.50;;;;;;;;;;4952371;28;20047;-49
2022/09/26 07:02:55;;;;;;;2.60;2.40;;;;;;;;;;4945512;28;20142;-45
2022/09/26 07:05:42;;;;;;;3.75;3.38;;;;;;;;;;4947540;28;20042;-45
2022/09/26 07:08:29;;;;;;;3.33;2.92;;;;;;;;;;4945257;28;20086;-45
2022/09/26 07:11:14;;;;;;;3.40;2.90;;;;;;;;;;4941300;28;20070;-45
2022/09/26 07:14:00;;;;;;;6.13;2.85;;;;;;;;;;4941138;28;20045;-44
2022/09/26 07:16:52;;;;;;;3.05;2.75;;;;;;;;;;4943085;28;20117;-46
2022/09/26 07:19:38;;;;;;;3.03;2.80;;;;;;;;;;4935214;28;20062;-46
2022/09/26 07:22:23;;;;;;;2.97;2.47;;;;;;;;;;4940584;28;20066;-45
2022/09/26 07:25:10;;;;;;;7.32;3.03;;;;;;;;;;4936088;28;20419;-46
2022/09/26 07:27:56;;;;;;;3.45;2.70;;;;;;;;;;4955657;28;20065;-49
2022/09/26 07:30:42;;;;;;;3.75;2.97;;;;;;;;;;4936469;28;20128;-50
2022/09/26 07:33:28;;;;;;;4.78;3.00;;;;;;;;;;4947166;28;23299;-44
2022/09/26 07:36:14;;;;;;;10.82;2.88;;;;;;;;;;4947843;28;20065;-45
2022/09/26 07:39:01;;;;;;;3.08;2.60;;;;;;;;;;4946608;28;20449;-46
2022/09/26 07:41:48;;;;;;;3.08;2.78;;;;;;;;;;4941993;28;20031;-45
2022/09/26 07:44:34;;;;;;;3.83;2.63;;;;;;;;;;4938153;28;20043;-47
2022/09/26 07:50:24;;;;;;;2.50;2.30;;;;;;;;;;4952136;28;20134;-47
2022/09/26 07:53:10;;;;;;;4.57;2.78;;;;;;;;;;4955068;28;20043;-46
2022/09/26 07:56:05;;;;;;;7.70;2.63;;;;;;;;;;4956955;28;20109;-45
2022/09/26 07:58:53;;;;;;;4.90;2.30;;;;;;;;;;4942570;28;20078;-51
2022/09/26 08:01:39;;;;;;;2.28;2.08;;;;;;;;;;4948688;28;20047;-45
2022/09/26 08:04:25;;;;;;;2.47;2.20;;;;;;;;;;4937518;28;20040;-48
2022/09/26 08:07:11;;;;;;;2.13;2.03;;;;;;;;;;4944630;28;20038;-44
2022/09/26 08:10:00;;;;;;;2.42;2.22;;;;;;;;;;4935241;28;20043;-47
2022/09/26 08:12:46;;;;;;;5.70;2.35;;;;;;;;;;4945497;28;20476;-47
2022/09/26 08:15:32;;;;;;;3.80;2.10;;;;;;;;;;4940067;28;20070;-45
2022/09/26 08:18:19;;;;;;;5.47;2.47;;;;;;;;;;4936665;28;20043;-48
2022/09/26 08:21:05;;;;;;;2.10;2.00;;;;;;;;;;4951073;28;20061;-46
2022/09/26 08:23:52;;;;;;;2.63;2.42;;;;;;;;;;4942787;28;20052;-47
2022/09/26 08:26:39;;;;;;;4.25;2.38;;;;;;;;;;4937266;28;20036;-45
2022/09/26 08:29:25;;;;;;;2.08;1.85;;;;;;;;;;4951183;28;20043;-46
2022/09/26 08:32:11;;;;;;;2.58;2.38;;;;;;;;;;4952619;28;20074;-47
2022/09/26 08:34:57;;;;;;;4.50;2.35;;;;;;;;;;4957989;28;20419;-44
2022/09/26 08:37:42;;;;;;;2.22;2.05;;;;;;;;;;4937398;28;20050;-48
2022/09/26 08:40:55;;;;;;;2.95;2.25;;;;;;;;;;4951431;28;20039;-50
2022/09/26 08:43:55;;;;;;;2.25;2.15;;;;;;;;;;4947273;28;20485;-46
2022/09/26 08:50:10;;;;;;;4.20;2.40;;;;;;;;;;4940698;28;20058;-48
2022/09/26 08:53:04;;;;;;;2.78;2.55;;;;;;;;;;4948114;28;20054;-49
2022/09/26 08:55:55;;;;;;;5.13;2.33;;;;;;;;;;4945771;28;20035;-46
2022/09/26 08:58:44;;;;;;;2.30;2.10;;;;;;;;;;4950330;28;20065;-50
2022/09/26 09:01:38;;;;;;;2.17;1.90;;;;;;;;;;4940301;28;20471;-49
2022/09/26 09:04:51;;;;;;;2.10;1.90;;;;;;;;;;4947597;28;20404;-45
2022/09/26 09:07:37;;;;;;;3.60;2.13;;;;;;;;;;4942568;28;20035;-45
2022/09/26 09:10:43;;;;;;;2.00;1.90;;;;;;;;;;4949584;28;20471;-51
2022/09/26 09:13:40;;;;;;;3.45;1.98;;;;;;;;;;4941537;28;20048;-47
2022/09/26 09:16:35;;;;;;;3.28;1.98;;;;;;;;;;4941548;28;20027;-49
2022/09/26 09:19:47;;;;;;;5.60;2.20;;;;;;;;;;4958390;28;20659;-46
2022/09/26 09:22:51;;;;;;;2.63;2.00;;;;;;;;;;4943609;28;20082;-44
2022/09/26 09:25:46;;;;;;;4.25;3.13;;;;;;;;;;4933698;28;20048;-49
2022/09/26 09:28:47;;;;;;;2.33;2.13;;;;;;;;;;4936579;28;20134;-44
2022/09/26 09:31:39;;;;;;;2.40;2.20;;;;;;;;;;4938101;28;20113;-49
2022/09/26 09:34:33;;;;;;;1.83;1.70;;;;;;;;;;4937047;28;20047;-48
2022/09/26 09:37:35;;;;;;;2.40;2.00;;;;;;;;;;4947173;28;20121;-50
2022/09/26 09:40:32;;;;;;;2.50;2.30;;;;;;;;;;4932952;28;20166;-49
2022/09/26 09:43:36;;;;;;;4.72;2.30;;;;;;;;;;4945080;28;20053;-48
2022/09/26 09:46:27;;;;;;;3.92;2.10;;;;;;;;;;4944463;28;20038;-46
2022/09/26 09:49:21;;;;;;;3.75;1.95;;;;;;;;;;4937501;28;20043;-51
2022/09/26 09:52:41;;;;;;;1.90;1.58;;;;;;;;;;4943724;28;20031;-48
2022/09/26 09:55:38;;;;;;;2.10;1.95;;;;;;;;;;4948281;28;20399;-50
2022/09/26 09:59:06;;;;;;;1.98;1.88;;;;;;;;;;4950281;28;21043;-48
2022/09/26 10:02:09;;;;;;;1.90;1.80;;;;;;;;;;4951149;28;20449;-49
2022/09/26 10:05:33;;;;;;;2.30;1.63;;;;;;;;;;4937600;28;20147;-48
2022/09/26 10:08:26;;;;;;;1.88;1.77;;;;;;;;;;4953329;28;20047;-48
2022/09/26 10:11:33;;;;;;;2.10;2.00;;;;;;;;;;4943893;28;20471;-46
2022/09/26 10:14:39;;;;;;;5.10;1.80;;;;;;;;;;4951647;28;20034;-46
2022/09/26 10:17:28;;;;;;;3.95;2.35;;;;;;;;;;4949517;28;20048;-51
2022/09/26 10:20:34;;;;;;;2.20;2.00;;;;;;;;;;4937201;28;20688;-48
2022/09/26 10:23:31;;;;;;;2.83;1.60;;;;;;;;;;4938903;28;20051;-50
2022/09/26 10:26:33;;;;;;;2.50;1.60;;;;;;;;;;4940916;28;20032;-47
2022/09/26 10:29:33;;;;;;;1.77;1.67;;;;;;;;;;4956658;28;20097;-50
2022/09/26 10:32:18;;;;;;;1.98;1.88;;;;;;;;;;4954785;28;20492;-51
2022/09/26 10:35:20;;;;;;;2.33;2.13;;;;;;;;;;4947050;28;20047;-46
2022/09/26 10:38:21;;;;;;;4.28;1.80;;;;;;;;;;4954075;28;20106;-51
2022/09/26 10:41:06;;;;;;;1.88;1.77;;;;;;;;;;4950775;28;20467;-46
2022/09/26 10:43:54;;;;;;;3.50;2.05;;;;;;;;;;4943220;28;20079;-49
2022/09/26 10:46:44;;;;;;;2.17;1.80;;;;;;;;;;4947322;28;20392;-49
2022/09/26 10:49:38;;;;;;;2.03;1.92;;;;;;;;;;4941055;28;20552;-46
2022/09/26 10:52:33;;;;;;;2.03;1.75;;;;;;;;;;4952863;28;20050;-47
2022/09/26 10:55:27;;;;;;;3.35;2.00;;;;;;;;;;4951155;28;20058;-50
2022/09/26 10:58:19;;;;;;;2.00;1.80;;;;;;;;;;4938286;28;20614;-48
2022/09/26 11:01:06;;;;;;;3.53;1.90;;;;;;;;;;4944188;28;20023;-49
2022/09/26 11:03:54;;;;;;;2.50;1.85;;;;;;;;;;4939218;28;20051;-50
2022/09/26 11:06:44;;;;;;;2.80;1.70;;;;;;;;;;4954675;28;20551;-49
2022/09/26 11:09:30;;;;;;;3.10;1.80;;;;;;;;;;4957112;28;20039;-47
2022/09/26 11:12:38;;;;;;;2.78;1.80;;;;;;;;;;4940595;28;20027;-50
2022/09/26 11:15:24;;;;;;;2.10;1.90;;;;;;;;;;4944966;28;20131;-50
2022/09/26 11:18:24;;;;;;;1.80;1.70;;;;;;;;;;4946137;28;20048;-46
2022/09/26 11:21:19;;;;;;;1.80;1.70;;;;;;;;;;4945469;28;20031;-52
2022/09/26 11:24:20;;;;;;;1.80;1.70;;;;;;;;;;4946151;28;20055;-51
2022/09/26 11:27:15;;;;;;;3.30;1.80;;;;;;;;;;4947699;28;20043;-49
2022/09/26 11:30:18;;;;;;;1.70;1.60;;;;;;;;;;4949947;28;20058;-48
2022/09/26 11:33:11;;;;;;;2.40;1.40;;;;;;;;;;4939001;28;20553;-52
2022/09/26 11:36:31;;;;;;;1.88;1.55;;;;;;;;;;4945017;28;20083;-47
2022/09/26 11:39:17;;;;;;;1.45;1.40;;;;;;;;;;4941192;28;20043;-51
2022/09/26 11:42:28;;;;;;;2.55;2.13;;;;;;;;;;4940196;28;20058;-49
2022/09/26 11:45:32;;;;;;;1.50;1.40;;;;;;;;;;4945010;28;20051;-52
2022/09/26 11:48:27;;;;;;;1.30;1.30;;;;;;;;;;4939189;28;20051;-51
2022/09/26 11:51:33;;;;;;;3.28;1.63;;;;;;;;;;4952540;28;20075;-49
2022/09/26 11:54:58;;;;;;;1.73;1.35;;;;;;;;;;4949812;28;20078;-49
2022/09/26 11:58:02;;;;;;;1.48;1.38;;;;;;;;;;4950472;28;20520;-47
2022/09/26 12:01:04;;;;;;;1.10;1.10;;;;;;;;;;4951441;28;20430;-51
2022/09/26 12:03:54;;;;;;;3.30;1.88;;;;;;;;;;4947002;28;20042;-43
2022/09/26 12:07:01;;;;;;;1.30;1.25;;;;;;;;;;4949814;28;20039;-51
2022/09/26 12:09:59;;;;;;;2.53;1.40;;;;;;;;;;4948557;28;20051;-51
2022/09/26 12:13:33;;;;;;;3.08;1.40;;;;;;;;;;4944007;28;20040;-48
2022/09/26 12:16:37;;;;;;;2.92;1.30;;;;;;;;;;4953004;28;20062;-51
2022/09/26 12:19:37;;;;;;;1.67;1.35;;;;;;;;;;4951069;28;20412;-50
2022/09/26 12:22:36;;;;;;;1.52;1.42;;;;;;;;;;4943102;28;20395;-47
2022/09/26 12:25:38;;;;;;;1.40;1.30;;;;;;;;;;4936880;28;20416;-50
2022/09/26 12:28:30;;;;;;;;;;;;;;;;;;4939056;28;20411;-49
2022/09/26 12:31:54;;;;;;;4.50;1.40;;;;;;;;;;4933587;28;19969;-48
2022/09/26 12:35:06;;;;;;;2.53;1.30;;;;;;;;;;4936199;28;20484;-51
2022/09/26 12:38:10;;;;;;;3.88;1.52;;;;;;;;;;4951341;28;20038;-50
2022/09/26 12:41:16;;;;;;;1.50;1.40;;;;;;;;;;4952107;28;20035;-50
2022/09/26 12:44:08;;;;;;;1.58;1.48;;;;;;;;;;4947018;28;20043;-51
2022/09/26 12:47:10;;;;;;;3.35;1.67;;;;;;;;;;4942796;28;20086;-47
2022/09/26 12:50:04;;;;;;;1.45;1.35;;;;;;;;;;4935868;28;20071;-46
2022/09/26 12:52:53;;;;;;;1.30;1.20;;;;;;;;;;4940388;28;20134;-49
2022/09/26 12:55:45;;;;;;;3.95;1.67;;;;;;;;;;4953005;28;20071;-51
2022/09/26 12:59:03;;;;;;;1.35;1.27;;;;;;;;;;4945017;28;20055;-48
2022/09/26 13:02:03;;;;;;;1.27;1.25;;;;;;;;;;4943789;28;20503;-49
2022/09/26 13:05:11;;;;;;;1.45;1.35;;;;;;;;;;4946028;28;20051;-49
2022/09/26 13:08:19;;;;;;;1.40;1.30;;;;;;;;;;4949224;28;20090;-47
2022/09/26 13:11:05;;;;;;;1.40;1.30;;;;;;;;;;4955367;28;20039;-48
2022/09/26 13:14:08;;;;;;;3.78;1.17;;;;;;;;;;4952840;28;20043;-50
2022/09/26 13:17:35;;;;;;;1.60;1.50;;;;;;;;;;4952910;28;20046;-53
2022/09/26 13:20:37;;;;;;;1.08;1.08;;;;;;;;;;4872175;29;20056;-51
2022/09/26 13:23:39;;;;;;;1.75;1.20;;;;;;;;;;4864936;29;20055;-50
2022/09/26 13:26:34;;;;;;;1.30;1.30;;;;;;;;;;4873163;29;20044;-47
2022/09/26 13:29:26;;;;;;;1.25;1.15;;;;;;;;;;4869616;29;20048;-49
2022/09/26 13:32:22;;;;;;;1.33;1.33;;;;;;;;;;4866915;29;20582;-52
2022/09/26 13:35:19;;;;;;;6.82;1.30;;;;;;;;;;4876070;29;20136;-49
2022/09/26 13:38:38;;;;;;;1.33;1.27;;;;;;;;;;4870899;29;20052;-49
2022/09/26 13:41:49;;;;;;;1.33;1.23;;;;;;;;;;4868966;29;20032;-47
2022/09/26 13:44:47;;;;;;;1.02;1.00;;;;;;;;;;4868827;29;20205;-51
2022/09/26 13:48:00;;;;;;;1.42;1.38;;;;;;;;;;4872931;29;20067;-49
2022/09/26 13:50:54;;;;;;;2.67;1.33;;;;;;;;;;4908480;28;20484;-50
2022/09/26 13:53:49;;;;;;;1.70;1.60;;;;;;;;;;4950612;28;20054;-51
2022/09/26 13:56:35;;;;;;;1.55;1.30;;;;;;;;;;4939441;28;20515;-49
2022/09/26 13:59:26;;;;;;;2.55;1.60;;;;;;;;;;4943531;28;20082;-52
2022/09/26 14:02:16;;;;;;;1.58;1.48;;;;;;;;;;4944804;28;20487;-47
2022/09/26 14:05:02;;;;;;;2.30;1.33;;;;;;;;;;4937658;28;20448;-47
2022/09/26 14:11:10;;;;;;;1.40;1.30;;;;;;;;;;4942099;28;20513;-47
2022/09/26 14:14:18;;;;;;;4.40;1.20;;;;;;;;;;4925624;28;20042;-52
2022/09/26 14:17:41;;;;;;;1.73;1.52;;;;;;;;;;4949382;28;20031;-51
2022/09/26 14:20:32;;;;;;;3.10;1.40;;;;;;;;;;4938637;28;20044;-51
2022/09/26 14:23:45;;;;;;;1.60;1.50;;;;;;;;;;4956405;28;20507;-51
2022/09/26 14:26:42;;;;;;;1.30;1.20;;;;;;;;;;4940552;28;20118;-49
2022/09/26 14:29:28;;;;;;;1.55;1.45;;;;;;;;;;4940877;28;20412;-47
2022/09/26 14:32:16;;;;;;;1.40;1.30;;;;;;;;;;4944070;28;20032;-52
2022/09/26 14:35:14;;;;;;;1.73;1.42;;;;;;;;;;4935210;28;20059;-50
2022/09/26 14:38:03;;;;;;;2.90;1.70;;;;;;;;;;4950364;28;20043;-50
2022/09/26 14:40:56;;;;;;;1.42;1.33;;;;;;;;;;4932216;28;20043;-53
2022/09/26 14:43:43;;;;;;;2.35;1.30;;;;;;;;;;4941155;28;20074;-50
2022/09/26 14:46:32;;;;;;;1.02;1.02;;;;;;;;;;4946387;28;20044;-51
2022/09/26 14:49:25;;;;;;;1.67;1.58;;;;;;;;;;4936034;28;20151;-50
2022/09/26 14:52:18;;;;;;;2.83;1.77;;;;;;;;;;4952304;28;20042;-49
2022/09/26 14:55:06;;;;;;;1.80;1.70;;;;;;;;;;4954246;28;20099;-51
2022/09/26 14:58:15;;;;;;;1.67;1.58;;;;;;;;;;4949723;28;20054;-49
2022/09/26 15:01:05;;;;;;;2.50;1.50;;;;;;;;;;4940115;28;20043;-51
2022/09/26 15:04:01;;;;;;;1.60;1.50;;;;;;;;;;4944740;28;20036;-50
2022/09/26 15:06:51;;;;;;;1.77;1.40;;;;;;;;;;4938421;28;20031;-51
2022/09/26 15:09:58;;;;;;;1.20;1.10;;;;;;;;;;4950643;28;20057;-50
2022/09/26 15:12:53;;;;;;;1.08;1.05;;;;;;;;;;4956813;28;20484;-47
2022/09/26 15:15:57;;;;;;;0.93;0.93;;;;;;;;;;4943794;28;20119;-49
2022/09/26 15:18:55;;;;;;;1.00;1.00;;;;;;;;;;4945523;28;20074;-47
2022/09/26 15:21:44;;;;;;;1.38;1.30;;;;;;;;;;4941678;28;20385;-48
2022/09/26 15:24:32;;;;;;;1.52;1.42;;;;;;;;;;4942220;28;20114;-53
2022/09/26 15:27:26;;;;;;;2.90;1.08;;;;;;;;;;4947246;28;20448;-48
2022/09/26 15:30:26;;;;;;;1.85;1.55;;;;;;;;;;4943277;28;20042;-50
2022/09/26 15:33:16;;;;;;;1.42;1.00;;;;;;;;;;4936543;28;21153;-50
2022/09/26 15:36:05;;;;;;;1.95;1.10;;;;;;;;;;4935816;28;20086;-50
2022/09/26 15:38:51;;;;;;;1.15;1.10;;;;;;;;;;4946700;28;20047;-47
2022/09/26 15:44:54;;;;;;;1.42;1.20;;;;;;;;;;4942203;28;20070;-50
2022/09/26 15:47:40;;;;;;;1.02;1.02;;;;;;;;;;4938723;28;20042;-46
2022/09/26 15:50:44;;;;;;;1.30;1.20;;;;;;;;;;4939727;28;20031;-52
2022/09/26 15:53:35;;;;;;;1.27;1.20;;;;;;;;;;4949116;28;20051;-49
2022/09/26 15:56:36;;;;;;;1.85;1.38;;;;;;;;;;4948100;28;20040;-50
2022/09/26 15:59:31;;;;;;;1.00;1.00;;;;;;;;;;4937132;28;20063;-50
2022/09/26 16:02:29;;;;;;;2.08;1.30;;;;;;;;;;4945429;28;20129;-52
2022/09/26 16:05:15;;;;;;;1.35;1.30;;;;;;;;;;4942476;28;20385;-54
2022/09/26 16:08:01;;;;;;;4.30;1.23;;;;;;;;;;4942832;28;20520;-53
2022/09/26 16:10:55;;;;;;;1.20;1.20;;;;;;;;;;4939595;28;20040;-53
2022/09/26 16:13:46;;;;;;;2.92;1.33;;;;;;;;;;4940806;28;20070;-52
2022/09/26 16:16:33;;;;;;;1.20;1.20;;;;;;;;;;4940593;28;20032;-54
2022/09/26 16:19:34;;;;;;;1.77;1.42;;;;;;;;;;4937475;28;20126;-48
2022/09/26 16:22:25;;;;;;;1.23;1.13;;;;;;;;;;4944245;28;20419;-54
2022/09/26 16:25:14;;;;;;;1.40;1.30;;;;;;;;;;4949226;28;20079;-51
2022/09/26 16:28:09;;;;;;;1.17;1.15;;;;;;;;;;4952004;28;20070;-46
2022/09/26 16:30:57;;;;;;;3.13;1.40;;;;;;;;;;4948258;28;20118;-50
2022/09/26 16:33:49;;;;;;;1.25;1.25;;;;;;;;;;4947640;28;20031;-50
2022/09/26 16:36:43;;;;;;;1.80;1.20;;;;;;;;;;4950247;28;20070;-53
2022/09/26 16:39:30;;;;;;;2.35;1.20;;;;;;;;;;4938671;28;20118;-50
2022/09/26 16:42:16;;;;;;;4.88;1.48;;;;;;;;;;4942628;28;20061;-52
2022/09/26 16:45:04;;;;;;;1.83;1.55;;;;;;;;;;4938782;28;20083;-51
2022/09/26 16:47:49;;;;;;;2.33;1.35;;;;;;;;;;4942386;28;20100;-49
2022/09/26 16:50:36;;;;;;;2.25;1.70;;;;;;;;;;4944623;28;20430;-60
2022/09/26 16:53:21;;;;;;;1.50;1.40;;;;;;;;;;4940776;28;20042;-57
2022/09/26 16:56:11;;;;;;;2.53;1.50;;;;;;;;;;4950033;28;20050;-57
2022/09/26 16:58:59;;;;;;;4.20;1.60;;;;;;;;;;4951539;28;20078;-58
2022/09/26 17:01:53;;;;;;;1.60;1.50;;;;;;;;;;4948326;28;20027;-58
2022/09/26 17:04:40;;;;;;;1.50;1.40;;;;;;;;;;4944850;28;20134;-57
2022/09/26 17:07:25;;;;;;;1.60;1.50;;;;;;;;;;4949579;28;20047;-57
2022/09/26 17:10:11;;;;;;;1.50;1.40;;;;;;;;;;4945212;28;20047;-53
2022/09/26 17:13:01;;;;;;;3.63;1.40;;;;;;;;;;4948054;28;20047;-56
2022/09/26 17:15:54;;;;;;;3.70;1.40;;;;;;;;;;4949441;28;20031;-57
2022/09/26 17:18:42;;;;;;;2.88;1.40;;;;;;;;;;4950650;28;20044;-56
2022/09/26 17:21:27;;;;;;;1.50;1.40;;;;;;;;;;4948160;28;20436;-55
2022/09/26 17:24:17;;;;;;;1.50;1.40;;;;;;;;;;4947973;28;20043;-56
2022/09/26 17:27:05;;;;;;;1.35;1.30;;;;;;;;;;4949541;28;20093;-56
2022/09/26 17:29:53;;;;;;;1.33;1.25;;;;;;;;;;4952289;28;20162;-53
2022/09/26 17:32:45;;;;;;;2.85;1.40;;;;;;;;;;4945758;28;20030;-56
2022/09/26 17:35:32;;;;;;;4.07;1.15;;;;;;;;;;4943118;28;20023;-56